sensor_id;sensor_type;location;lat;lon;timestamp;temperature;humidity
16814;DHT22;8524;57.650;11.926;2023-05-20T00:01:19;7.60;99.90
16814;DHT22;8524;57.650;11.926;2023-05-20T00:03:46;7.60;99.90
16814;DHT22;8524;57.650;11.926;2023-05-20T00:06:13;7.50;99.90
16814;DHT22;8524;57.650;11.926;2023-05-20T00:08:41;7.50;99.90
16814;DHT22;8524;57.650;11.926;2023-05-20T00:11:08;7.50;99.90
16814;DHT22;8524;57.650;11.926;2023-05-20T00:13:35;7.50;99.90
16814;DHT22;8524;57.650;11.926;2023-05-20T00:16:04;7.50;99.90
16814;DHT22;8524;57.650;11.926;2023-05-20T00:18:31;7.40;99.90
16814;DHT22;8524;57.650;11.926;2023-05-20T00:20:58;7.40;99.90
16814;DHT22;8524;57.650;11.926;2023-05-20T00:23:25;7.40;99.90
16814;DHT22;8524;57.650;11.926;2023-05-20T00:25:53;7.40;99.90
16814;DHT22;8524;57.650;11.926;2023-05-20T00:28:20;7.40;99.90
16814;DHT22;8524;57.650;11.926;2023-05-20T00:30:48;7.50;99.90
16814;DHT22;8524;57.650;11.926;2023-05-20T00:33:15;7.40;99.90
16814;DHT22;8524;57.650;11.926;2023-05-20T00:35:42;7.50;99.90
16814;DHT22;8524;57.650;11.926;2023-05-20T00:38:09;7.40;99.90
16814;DHT22;8524;57.650;11.926;2023-05-20T00:40:36;7.30;99.90
16814;DHT22;8524;57.650;11.926;2023-05-20T00:43:04;7.30;99.90
16814;DHT22;8524;57.650;11.926;2023-05-20T00:45:31;7.30;99.90
16814;DHT22;8524;57.650;11.926;2023-05-20T00:47:58;7.10;99.90
16814;DHT22;8524;57.650;11.926;2023-05-20T00:50:28;7.00;99.90
16814;DHT22;8524;57.650;11.926;2023-05-20T00:52:55;7.00;99.90
16814;DHT22;8524;57.650;11.926;2023-05-20T00:55:23;7.00;99.90
16814;DHT22;8524;57.650;11.926;2023-05-20T00:57:51;7.00;99.90
16814;DHT22;8524;57.650;11.926;2023-05-20T01:00:20;7.00;99.90
16814;DHT22;8524;57.650;11.926;2023-05-20T01:02:48;7.00;99.90
16814;DHT22;8524;57.650;11.926;2023-05-20T01:05:15;6.90;99.90
16814;DHT22;8524;57.650;11.926;2023-05-20T01:07:42;6.80;99.90
16814;DHT22;8524;57.650;11.926;2023-05-20T01:10:10;6.90;99.90
16814;DHT22;8524;57.650;11.926;2023-05-20T01:12:40;6.90;99.90
16814;DHT22;8524;57.650;11.926;2023-05-20T01:15:10;6.90;99.90
16814;DHT22;8524;57.650;11.926;2023-05-20T01:17:40;6.90;99.90
16814;DHT22;8524;57.650;11.926;2023-05-20T01:20:11;7.00;99.90
16814;DHT22;8524;57.650;11.926;2023-05-20T01:22:46;6.90;99.90
16814;DHT22;8524;57.650;11.926;2023-05-20T01:25:13;6.90;99.90
16814;DHT22;8524;57.650;11.926;2023-05-20T01:27:40;6.90;99.90
16814;DHT22;8524;57.650;11.926;2023-05-20T01:30:08;6.90;99.90
16814;DHT22;8524;57.650;11.926;2023-05-20T01:32:38;6.80;99.90
16814;DHT22;8524;57.650;11.926;2023-05-20T01:35:06;6.80;99.90
16814;DHT22;8524;57.650;11.926;2023-05-20T01:37:35;6.80;99.90
16814;DHT22;8524;57.650;11.926;2023-05-20T01:40:07;6.80;99.90
16814;DHT22;8524;57.650;11.926;2023-05-20T01:42:35;6.90;99.90
16814;DHT22;8524;57.650;11.926;2023-05-20T01:45:03;6.90;99.90
16814;DHT22;8524;57.650;11.926;2023-05-20T01:47:30;6.90;99.90
16814;DHT22;8524;57.650;11.926;2023-05-20T01:49:57;6.90;99.90
16814;DHT22;8524;57.650;11.926;2023-05-20T01:52:24;6.90;99.90
16814;DHT22;8524;57.650;11.926;2023-05-20T01:54:51;6.90;99.90
16814;DHT22;8524;57.650;11.926;2023-05-20T01:57:20;6.80;99.90
16814;DHT22;8524;57.650;11.926;2023-05-20T01:59:47;6.80;99.90
16814;DHT22;8524;57.650;11.926;2023-05-20T02:02:14;6.70;99.90
16814;DHT22;8524;57.650;11.926;2023-05-20T02:04:44;6.60;99.90
16814;DHT22;8524;57.650;11.926;2023-05-20T02:07:12;6.60;99.90
16814;DHT22;8524;57.650;11.926;2023-05-20T02:09:39;6.70;99.90
16814;DHT22;8524;57.650;11.926;2023-05-20T02:12:07;6.60;99.90
16814;DHT22;8524;57.650;11.926;2023-05-20T02:14:36;6.50;99.90
16814;DHT22;8524;57.650;11.926;2023-05-20T02:17:03;6.50;99.90
16814;DHT22;8524;57.650;11.926;2023-05-20T02:19:30;6.50;99.90
16814;DHT22;8524;57.650;11.926;2023-05-20T02:21:57;6.50;99.90
16814;DHT22;8524;57.650;11.926;2023-05-20T02:24:24;6.50;99.90
16814;DHT22;8524;57.650;11.926;2023-05-20T02:26:51;6.50;99.90
16814;DHT22;8524;57.650;11.926;2023-05-20T02:29:19;6.40;99.90
16814;DHT22;8524;57.650;11.926;2023-05-20T02:31:48;6.30;99.90
16814;DHT22;8524;57.650;11.926;2023-05-20T02:34:16;6.40;99.90
16814;DHT22;8524;57.650;11.926;2023-05-20T02:36:43;6.40;99.90
16814;DHT22;8524;57.650;11.926;2023-05-20T02:39:10;6.30;99.90
16814;DHT22;8524;57.650;11.926;2023-05-20T02:41:37;6.30;99.90
16814;DHT22;8524;57.650;11.926;2023-05-20T02:44:04;6.20;99.90
16814;DHT22;8524;57.650;11.926;2023-05-20T02:46:31;6.40;99.90
16814;DHT22;8524;57.650;11.926;2023-05-20T02:49:00;6.40;99.90
16814;DHT22;8524;57.650;11.926;2023-05-20T02:51:27;6.50;99.90
16814;DHT22;8524;57.650;11.926;2023-05-20T02:53:56;6.50;99.90
16814;DHT22;8524;57.650;11.926;2023-05-20T02:56:23;6.60;99.90
16814;DHT22;8524;57.650;11.926;2023-05-20T02:58:51;6.60;99.90
16814;DHT22;8524;57.650;11.926;2023-05-20T03:01:18;6.70;99.90
16814;DHT22;8524;57.650;11.926;2023-05-20T03:03:45;6.70;99.90
16814;DHT22;8524;57.650;11.926;2023-05-20T03:06:14;6.70;99.90
16814;DHT22;8524;57.650;11.926;2023-05-20T03:08:41;6.70;99.90
16814;DHT22;8524;57.650;11.926;2023-05-20T03:11:08;6.60;99.90
16814;DHT22;8524;57.650;11.926;2023-05-20T03:13:35;6.60;99.90
16814;DHT22;8524;57.650;11.926;2023-05-20T03:16:02;6.50;99.90
16814;DHT22;8524;57.650;11.926;2023-05-20T03:18:29;6.50;99.90
16814;DHT22;8524;57.650;11.926;2023-05-20T03:20:56;6.60;99.90
16814;DHT22;8524;57.650;11.926;2023-05-20T03:23:24;6.70;99.90
16814;DHT22;8524;57.650;11.926;2023-05-20T03:25:51;6.90;99.90
16814;DHT22;8524;57.650;11.926;2023-05-20T03:28:18;7.00;99.90
16814;DHT22;8524;57.650;11.926;2023-05-20T03:30:45;7.10;99.90
16814;DHT22;8524;57.650;11.926;2023-05-20T03:33:12;7.20;99.90
16814;DHT22;8524;57.650;11.926;2023-05-20T03:35:40;7.20;99.90
16814;DHT22;8524;57.650;11.926;2023-05-20T03:38:07;7.30;99.90
16814;DHT22;8524;57.650;11.926;2023-05-20T03:40:36;7.20;99.90
16814;DHT22;8524;57.650;11.926;2023-05-20T03:43:03;7.30;99.90
16814;DHT22;8524;57.650;11.926;2023-05-20T03:45:30;7.50;99.90
16814;DHT22;8524;57.650;11.926;2023-05-20T03:47:59;7.50;99.90
16814;DHT22;8524;57.650;11.926;2023-05-20T03:50:27;7.60;99.90
16814;DHT22;8524;57.650;11.926;2023-05-20T03:52:55;7.60;99.90
16814;DHT22;8524;57.650;11.926;2023-05-20T03:55:22;7.50;99.90
16814;DHT22;8524;57.650;11.926;2023-05-20T03:57:51;7.40;99.90
16814;DHT22;8524;57.650;11.926;2023-05-20T04:00:17;7.50;99.90
16814;DHT22;8524;57.650;11.926;2023-05-20T04:02:45;7.50;99.90
16814;DHT22;8524;57.650;11.926;2023-05-20T04:05:12;7.70;99.90
16814;DHT22;8524;57.650;11.926;2023-05-20T04:07:39;7.80;99.90
16814;DHT22;8524;57.650;11.926;2023-05-20T04:10:07;8.00;99.90
16814;DHT22;8524;57.650;11.926;2023-05-20T04:12:34;8.10;99.90
16814;DHT22;8524;57.650;11.926;2023-05-20T04:15:05;8.20;99.90
16814;DHT22;8524;57.650;11.926;2023-05-20T04:17:32;8.20;99.90
16814;DHT22;8524;57.650;11.926;2023-05-20T04:20:03;8.40;99.90
16814;DHT22;8524;57.650;11.926;2023-05-20T04:22:32;8.50;99.90
16814;DHT22;8524;57.650;11.926;2023-05-20T04:24:59;8.70;99.90
16814;DHT22;8524;57.650;11.926;2023-05-20T04:27:28;8.90;99.90
16814;DHT22;8524;57.650;11.926;2023-05-20T04:29:55;9.10;99.90
16814;DHT22;8524;57.650;11.926;2023-05-20T04:32:24;9.30;99.90
16814;DHT22;8524;57.650;11.926;2023-05-20T04:34:52;9.40;99.90
16814;DHT22;8524;57.650;11.926;2023-05-20T04:37:21;9.70;99.90
16814;DHT22;8524;57.650;11.926;2023-05-20T04:39:48;10.00;99.90
16814;DHT22;8524;57.650;11.926;2023-05-20T04:42:15;10.30;99.90
16814;DHT22;8524;57.650;11.926;2023-05-20T04:44:44;10.50;99.90
16814;DHT22;8524;57.650;11.926;2023-05-20T04:47:13;10.70;99.90
16814;DHT22;8524;57.650;11.926;2023-05-20T04:49:41;10.90;99.90
16814;DHT22;8524;57.650;11.926;2023-05-20T04:52:10;11.10;99.90
16814;DHT22;8524;57.650;11.926;2023-05-20T04:54:37;11.30;99.90
16814;DHT22;8524;57.650;11.926;2023-05-20T04:57:04;11.40;99.90
16814;DHT22;8524;57.650;11.926;2023-05-20T04:59:32;11.60;99.90
16814;DHT22;8524;57.650;11.926;2023-05-20T05:01:59;11.70;99.90
16814;DHT22;8524;57.650;11.926;2023-05-20T05:04:25;11.80;99.90
16814;DHT22;8524;57.650;11.926;2023-05-20T05:06:54;11.90;99.90
16814;DHT22;8524;57.650;11.926;2023-05-20T05:09:21;11.90;99.90
16814;DHT22;8524;57.650;11.926;2023-05-20T05:11:48;12.00;99.90
16814;DHT22;8524;57.650;11.926;2023-05-20T05:14:15;12.10;99.90
16814;DHT22;8524;57.650;11.926;2023-05-20T05:16:42;12.30;99.90
16814;DHT22;8524;57.650;11.926;2023-05-20T05:19:09;12.40;99.90
16814;DHT22;8524;57.650;11.926;2023-05-20T05:21:38;12.40;99.90
16814;DHT22;8524;57.650;11.926;2023-05-20T05:24:06;12.50;99.90
16814;DHT22;8524;57.650;11.926;2023-05-20T05:26:33;12.60;99.90
16814;DHT22;8524;57.650;11.926;2023-05-20T05:29:00;12.80;99.90
16814;DHT22;8524;57.650;11.926;2023-05-20T05:31:27;12.90;99.90
16814;DHT22;8524;57.650;11.926;2023-05-20T05:33:54;13.10;99.90
16814;DHT22;8524;57.650;11.926;2023-05-20T05:36:23;13.20;99.90
16814;DHT22;8524;57.650;11.926;2023-05-20T05:38:50;13.50;99.90
16814;DHT22;8524;57.650;11.926;2023-05-20T05:41:19;13.70;99.90
16814;DHT22;8524;57.650;11.926;2023-05-20T05:43:46;13.80;99.90
16814;DHT22;8524;57.650;11.926;2023-05-20T05:46:13;14.10;99.90
16814;DHT22;8524;57.650;11.926;2023-05-20T05:48:40;14.30;99.90
16814;DHT22;8524;57.650;11.926;2023-05-20T05:51:07;14.30;99.90
16814;DHT22;8524;57.650;11.926;2023-05-20T05:53:34;14.60;99.90
16814;DHT22;8524;57.650;11.926;2023-05-20T05:56:01;14.90;99.90
16814;DHT22;8524;57.650;11.926;2023-05-20T05:58:30;15.10;99.90
16814;DHT22;8524;57.650;11.926;2023-05-20T06:00:57;15.40;99.90
16814;DHT22;8524;57.650;11.926;2023-05-20T06:03:24;15.60;99.90
16814;DHT22;8524;57.650;11.926;2023-05-20T06:05:51;15.70;99.90
16814;DHT22;8524;57.650;11.926;2023-05-20T06:08:18;15.90;99.90
16814;DHT22;8524;57.650;11.926;2023-05-20T06:10:47;16.00;99.90
16814;DHT22;8524;57.650;11.926;2023-05-20T06:13:14;16.20;99.90
16814;DHT22;8524;57.650;11.926;2023-05-20T06:15:43;16.20;99.90
16814;DHT22;8524;57.650;11.926;2023-05-20T06:18:10;16.20;99.90
16814;DHT22;8524;57.650;11.926;2023-05-20T06:20:37;16.50;99.90
16814;DHT22;8524;57.650;11.926;2023-05-20T06:23:04;16.60;99.90
16814;DHT22;8524;57.650;11.926;2023-05-20T06:25:31;16.90;99.90
16814;DHT22;8524;57.650;11.926;2023-05-20T06:27:58;16.80;99.90
16814;DHT22;8524;57.650;11.926;2023-05-20T06:30:25;17.00;99.90
16814;DHT22;8524;57.650;11.926;2023-05-20T06:32:54;17.00;99.90
16814;DHT22;8524;57.650;11.926;2023-05-20T06:35:21;17.00;99.90
16814;DHT22;8524;57.650;11.926;2023-05-20T06:37:48;17.40;99.90
16814;DHT22;8524;57.650;11.926;2023-05-20T06:40:15;17.70;99.90
16814;DHT22;8524;57.650;11.926;2023-05-20T06:42:42;17.60;99.90
16814;DHT22;8524;57.650;11.926;2023-05-20T06:45:10;17.80;99.90
16814;DHT22;8524;57.650;11.926;2023-05-20T06:47:38;17.90;99.90
16814;DHT22;8524;57.650;11.926;2023-05-20T06:50:07;17.80;99.90
16814;DHT22;8524;57.650;11.926;2023-05-20T06:52:34;17.70;99.90
16814;DHT22;8524;57.650;11.926;2023-05-20T06:55:02;18.00;99.90
16814;DHT22;8524;57.650;11.926;2023-05-20T06:57:29;18.30;99.90
16814;DHT22;8524;57.650;11.926;2023-05-20T06:59:56;18.50;99.90
16814;DHT22;8524;57.650;11.926;2023-05-20T07:02:24;18.60;99.90
16814;DHT22;8524;57.650;11.926;2023-05-20T07:04:51;18.50;99.90
16814;DHT22;8524;57.650;11.926;2023-05-20T07:07:19;18.90;99.90
16814;DHT22;8524;57.650;11.926;2023-05-20T07:09:46;18.80;99.90
16814;DHT22;8524;57.650;11.926;2023-05-20T07:12:13;19.10;99.90
16814;DHT22;8524;57.650;11.926;2023-05-20T07:14:41;19.00;99.90
16814;DHT22;8524;57.650;11.926;2023-05-20T07:17:08;18.80;99.90
16814;DHT22;8524;57.650;11.926;2023-05-20T07:19:35;19.20;99.90
16814;DHT22;8524;57.650;11.926;2023-05-20T07:22:02;19.20;99.90
16814;DHT22;8524;57.650;11.926;2023-05-20T07:24:30;19.20;99.90
16814;DHT22;8524;57.650;11.926;2023-05-20T07:26:57;19.30;99.90
16814;DHT22;8524;57.650;11.926;2023-05-20T07:29:24;19.40;99.90
16814;DHT22;8524;57.650;11.926;2023-05-20T07:31:51;19.50;99.90
16814;DHT22;8524;57.650;11.926;2023-05-20T07:34:18;19.70;99.90
16814;DHT22;8524;57.650;11.926;2023-05-20T07:36:47;20.00;99.90
16814;DHT22;8524;57.650;11.926;2023-05-20T07:39:16;20.10;99.90
16814;DHT22;8524;57.650;11.926;2023-05-20T07:41:44;20.00;99.90
16814;DHT22;8524;57.650;11.926;2023-05-20T07:44:11;20.20;99.90
16814;DHT22;8524;57.650;11.926;2023-05-20T07:46:38;20.10;99.90
16814;DHT22;8524;57.650;11.926;2023-05-20T07:49:06;20.40;99.90
16814;DHT22;8524;57.650;11.926;2023-05-20T07:51:33;20.20;99.90
16814;DHT22;8524;57.650;11.926;2023-05-20T07:54:00;20.50;99.90
16814;DHT22;8524;57.650;11.926;2023-05-20T07:56:27;20.60;99.90
16814;DHT22;8524;57.650;11.926;2023-05-20T07:58:57;20.80;99.90
16814;DHT22;8524;57.650;11.926;2023-05-20T08:01:25;21.00;99.90
16814;DHT22;8524;57.650;11.926;2023-05-20T08:03:52;21.00;99.90
16814;DHT22;8524;57.650;11.926;2023-05-20T08:06:20;21.20;99.90
16814;DHT22;8524;57.650;11.926;2023-05-20T08:08:48;20.80;99.90
16814;DHT22;8524;57.650;11.926;2023-05-20T08:11:15;21.00;99.90
16814;DHT22;8524;57.650;11.926;2023-05-20T08:13:42;21.20;99.90
16814;DHT22;8524;57.650;11.926;2023-05-20T08:16:11;21.10;99.90
16814;DHT22;8524;57.650;11.926;2023-05-20T08:18:38;21.40;99.90
16814;DHT22;8524;57.650;11.926;2023-05-20T08:21:05;21.40;99.90
16814;DHT22;8524;57.650;11.926;2023-05-20T08:23:33;21.40;99.90
16814;DHT22;8524;57.650;11.926;2023-05-20T08:26:00;21.60;99.90
16814;DHT22;8524;57.650;11.926;2023-05-20T08:28:28;21.70;99.80
16814;DHT22;8524;57.650;11.926;2023-05-20T08:30:55;21.80;99.90
16814;DHT22;8524;57.650;11.926;2023-05-20T08:33:23;21.80;99.90
16814;DHT22;8524;57.650;11.926;2023-05-20T08:35:51;21.80;98.00
16814;DHT22;8524;57.650;11.926;2023-05-20T08:38:18;21.50;99.70
16814;DHT22;8524;57.650;11.926;2023-05-20T08:40:45;21.60;99.90
16814;DHT22;8524;57.650;11.926;2023-05-20T08:43:17;21.90;99.90
16814;DHT22;8524;57.650;11.926;2023-05-20T08:45:44;22.20;99.90
16814;DHT22;8524;57.650;11.926;2023-05-20T08:48:11;22.60;99.30
16814;DHT22;8524;57.650;11.926;2023-05-20T08:50:39;22.80;99.20
16814;DHT22;8524;57.650;11.926;2023-05-20T08:53:08;22.60;99.20
16814;DHT22;8524;57.650;11.926;2023-05-20T08:55:41;22.70;99.90
16814;DHT22;8524;57.650;11.926;2023-05-20T08:58:09;22.80;99.90
16814;DHT22;8524;57.650;11.926;2023-05-20T09:00:36;22.90;98.20
16814;DHT22;8524;57.650;11.926;2023-05-20T09:03:03;22.90;97.70
16814;DHT22;8524;57.650;11.926;2023-05-20T09:05:30;23.00;96.90
16814;DHT22;8524;57.650;11.926;2023-05-20T09:08:05;23.20;96.10
16814;DHT22;8524;57.650;11.926;2023-05-20T09:10:33;23.80;97.10
16814;DHT22;8524;57.650;11.926;2023-05-20T09:13:00;23.90;93.00
16814;DHT22;8524;57.650;11.926;2023-05-20T09:15:28;23.70;92.70
16814;DHT22;8524;57.650;11.926;2023-05-20T09:17:58;23.70;93.80
16814;DHT22;8524;57.650;11.926;2023-05-20T09:20:25;23.80;96.40
16814;DHT22;8524;57.650;11.926;2023-05-20T09:22:57;24.00;95.30
16814;DHT22;8524;57.650;11.926;2023-05-20T09:25:26;24.00;93.60
16814;DHT22;8524;57.650;11.926;2023-05-20T09:27:53;23.60;93.50
16814;DHT22;8524;57.650;11.926;2023-05-20T09:30:21;23.70;96.40
16814;DHT22;8524;57.650;11.926;2023-05-20T09:32:52;23.90;96.50
16814;DHT22;8524;57.650;11.926;2023-05-20T09:35:20;23.60;97.90
16814;DHT22;8524;57.650;11.926;2023-05-20T09:37:51;22.90;99.90
16814;DHT22;8524;57.650;11.926;2023-05-20T09:40:22;22.20;99.90
16814;DHT22;8524;57.650;11.926;2023-05-20T09:42:53;21.80;99.90
16814;DHT22;8524;57.650;11.926;2023-05-20T09:45:20;21.30;99.90
16814;DHT22;8524;57.650;11.926;2023-05-20T09:47:50;20.70;99.90
16814;DHT22;8524;57.650;11.926;2023-05-20T09:50:18;20.50;99.90
16814;DHT22;8524;57.650;11.926;2023-05-20T09:52:46;20.30;99.90
16814;DHT22;8524;57.650;11.926;2023-05-20T09:55:14;20.40;99.90
16814;DHT22;8524;57.650;11.926;2023-05-20T09:57:42;20.30;99.90
16814;DHT22;8524;57.650;11.926;2023-05-20T10:00:11;19.90;99.90
16814;DHT22;8524;57.650;11.926;2023-05-20T10:02:42;19.80;99.90
16814;DHT22;8524;57.650;11.926;2023-05-20T10:05:14;19.70;99.90
16814;DHT22;8524;57.650;11.926;2023-05-20T10:08:02;19.70;99.90
16814;DHT22;8524;57.650;11.926;2023-05-20T10:10:43;19.60;99.90
16814;DHT22;8524;57.650;11.926;2023-05-20T10:13:21;20.00;99.90
16814;DHT22;8524;57.650;11.926;2023-05-20T10:15:59;20.10;99.90
16814;DHT22;8524;57.650;11.926;2023-05-20T10:21:22;19.60;99.90
16814;DHT22;8524;57.650;11.926;2023-05-20T10:23:50;19.90;99.90
16814;DHT22;8524;57.650;11.926;2023-05-20T10:26:17;20.10;99.90
16814;DHT22;8524;57.650;11.926;2023-05-20T10:28:46;20.20;99.90
16814;DHT22;8524;57.650;11.926;2023-05-20T10:31:20;20.40;99.90
16814;DHT22;8524;57.650;11.926;2023-05-20T10:33:48;20.90;99.90
16814;DHT22;8524;57.650;11.926;2023-05-20T10:36:25;21.00;99.90
16814;DHT22;8524;57.650;11.926;2023-05-20T10:38:54;20.80;99.90
16814;DHT22;8524;57.650;11.926;2023-05-20T10:41:24;21.00;99.90
16814;DHT22;8524;57.650;11.926;2023-05-20T10:44:02;21.00;99.90
16814;DHT22;8524;57.650;11.926;2023-05-20T10:46:31;21.10;99.90
16814;DHT22;8524;57.650;11.926;2023-05-20T10:48:58;20.80;99.90
16814;DHT22;8524;57.650;11.926;2023-05-20T10:51:28;20.60;99.90
16814;DHT22;8524;57.650;11.926;2023-05-20T10:53:56;20.80;99.90
16814;DHT22;8524;57.650;11.926;2023-05-20T10:56:25;20.60;99.90
16814;DHT22;8524;57.650;11.926;2023-05-20T10:58:53;20.80;99.90
16814;DHT22;8524;57.650;11.926;2023-05-20T11:01:23;21.00;99.90
16814;DHT22;8524;57.650;11.926;2023-05-20T11:03:53;20.80;99.90
16814;DHT22;8524;57.650;11.926;2023-05-20T11:06:25;20.90;99.90
16814;DHT22;8524;57.650;11.926;2023-05-20T11:08:53;20.50;99.90
16814;DHT22;8524;57.650;11.926;2023-05-20T11:11:21;19.60;99.90
16814;DHT22;8524;57.650;11.926;2023-05-20T11:13:50;19.50;99.90
16814;DHT22;8524;57.650;11.926;2023-05-20T11:16:19;19.60;99.90
16814;DHT22;8524;57.650;11.926;2023-05-20T11:18:48;19.80;99.90
16814;DHT22;8524;57.650;11.926;2023-05-20T11:21:17;19.70;99.90
16814;DHT22;8524;57.650;11.926;2023-05-20T11:23:45;20.10;99.90
16814;DHT22;8524;57.650;11.926;2023-05-20T11:26:12;20.50;99.90
16814;DHT22;8524;57.650;11.926;2023-05-20T11:28:39;20.90;99.90
16814;DHT22;8524;57.650;11.926;2023-05-20T11:31:06;20.80;99.90
16814;DHT22;8524;57.650;11.926;2023-05-20T11:33:33;20.90;99.90
16814;DHT22;8524;57.650;11.926;2023-05-20T11:36:01;20.80;99.90
16814;DHT22;8524;57.650;11.926;2023-05-20T11:38:29;20.60;99.90
16814;DHT22;8524;57.650;11.926;2023-05-20T11:40:56;20.50;99.90
16814;DHT22;8524;57.650;11.926;2023-05-20T11:43:23;20.20;99.90
16814;DHT22;8524;57.650;11.926;2023-05-20T11:45:53;20.10;99.90
16814;DHT22;8524;57.650;11.926;2023-05-20T11:48:20;20.60;99.90
16814;DHT22;8524;57.650;11.926;2023-05-20T11:50:47;20.50;99.90
16814;DHT22;8524;57.650;11.926;2023-05-20T11:53:15;20.80;99.90
16814;DHT22;8524;57.650;11.926;2023-05-20T11:55:49;20.60;99.90
16814;DHT22;8524;57.650;11.926;2023-05-20T11:58:17;20.30;99.90
16814;DHT22;8524;57.650;11.926;2023-05-20T12:00:45;20.20;99.90
16814;DHT22;8524;57.650;11.926;2023-05-20T12:03:12;20.10;99.90
16814;DHT22;8524;57.650;11.926;2023-05-20T12:05:39;19.80;99.90
16814;DHT22;8524;57.650;11.926;2023-05-20T12:08:06;19.70;99.90
16814;DHT22;8524;57.650;11.926;2023-05-20T12:10:34;20.10;99.90
16814;DHT22;8524;57.650;11.926;2023-05-20T12:13:03;20.50;99.90
16814;DHT22;8524;57.650;11.926;2023-05-20T12:15:33;20.60;99.90
16814;DHT22;8524;57.650;11.926;2023-05-20T12:18:00;20.80;99.90
16814;DHT22;8524;57.650;11.926;2023-05-20T12:20:28;20.80;99.90
16814;DHT22;8524;57.650;11.926;2023-05-20T12:22:55;21.10;99.90
16814;DHT22;8524;57.650;11.926;2023-05-20T12:25:22;21.40;99.90
16814;DHT22;8524;57.650;11.926;2023-05-20T12:27:49;21.30;99.90
16814;DHT22;8524;57.650;11.926;2023-05-20T12:30:19;21.30;99.90
16814;DHT22;8524;57.650;11.926;2023-05-20T12:32:47;21.10;99.90
16814;DHT22;8524;57.650;11.926;2023-05-20T12:35:15;21.10;99.90
16814;DHT22;8524;57.650;11.926;2023-05-20T12:37:43;21.40;99.90
16814;DHT22;8524;57.650;11.926;2023-05-20T12:40:11;21.10;99.90
16814;DHT22;8524;57.650;11.926;2023-05-20T12:42:39;21.20;99.90
16814;DHT22;8524;57.650;11.926;2023-05-20T12:45:07;21.40;99.90
16814;DHT22;8524;57.650;11.926;2023-05-20T12:47:36;21.50;99.90
16814;DHT22;8524;57.650;11.926;2023-05-20T12:50:03;21.60;99.90
16814;DHT22;8524;57.650;11.926;2023-05-20T12:52:30;21.80;99.90
16814;DHT22;8524;57.650;11.926;2023-05-20T12:54:59;21.80;99.90
16814;DHT22;8524;57.650;11.926;2023-05-20T12:57:26;21.40;99.90
16814;DHT22;8524;57.650;11.926;2023-05-20T12:59:53;21.40;99.90
16814;DHT22;8524;57.650;11.926;2023-05-20T13:02:20;21.40;99.90
16814;DHT22;8524;57.650;11.926;2023-05-20T13:04:48;21.50;99.90
16814;DHT22;8524;57.650;11.926;2023-05-20T13:07:15;21.60;99.90
16814;DHT22;8524;57.650;11.926;2023-05-20T13:09:43;21.70;99.90
16814;DHT22;8524;57.650;11.926;2023-05-20T13:12:10;21.50;99.90
16814;DHT22;8524;57.650;11.926;2023-05-20T13:14:37;21.50;99.90
16814;DHT22;8524;57.650;11.926;2023-05-20T13:17:04;21.60;99.90
16814;DHT22;8524;57.650;11.926;2023-05-20T13:19:32;21.70;99.90
16814;DHT22;8524;57.650;11.926;2023-05-20T13:22:00;21.90;99.90
16814;DHT22;8524;57.650;11.926;2023-05-20T13:24:27;22.20;97.90
16814;DHT22;8524;57.650;11.926;2023-05-20T13:26:54;22.20;97.50
16814;DHT22;8524;57.650;11.926;2023-05-20T13:29:21;22.30;99.90
16814;DHT22;8524;57.650;11.926;2023-05-20T13:31:48;22.60;97.10
16814;DHT22;8524;57.650;11.926;2023-05-20T13:34:15;22.60;96.60
16814;DHT22;8524;57.650;11.926;2023-05-20T13:36:42;22.60;94.20
16814;DHT22;8524;57.650;11.926;2023-05-20T13:39:11;22.40;95.20
16814;DHT22;8524;57.650;11.926;2023-05-20T13:41:38;22.30;98.50
16814;DHT22;8524;57.650;11.926;2023-05-20T13:44:05;22.50;97.60
16814;DHT22;8524;57.650;11.926;2023-05-20T13:46:32;22.50;94.80
16814;DHT22;8524;57.650;11.926;2023-05-20T13:48:59;22.50;91.10
16814;DHT22;8524;57.650;11.926;2023-05-20T13:51:26;21.90;93.90
16814;DHT22;8524;57.650;11.926;2023-05-20T13:53:53;22.10;93.00
16814;DHT22;8524;57.650;11.926;2023-05-20T13:56:22;22.30;90.60
16814;DHT22;8524;57.650;11.926;2023-05-20T13:58:49;22.50;92.70
16814;DHT22;8524;57.650;11.926;2023-05-20T14:01:16;22.40;87.90
16814;DHT22;8524;57.650;11.926;2023-05-20T14:03:44;22.70;92.10
16814;DHT22;8524;57.650;11.926;2023-05-20T14:06:11;22.80;85.70
16814;DHT22;8524;57.650;11.926;2023-05-20T14:08:39;23.00;90.60
16814;DHT22;8524;57.650;11.926;2023-05-20T14:11:06;22.90;83.30
16814;DHT22;8524;57.650;11.926;2023-05-20T14:13:34;22.70;86.20
16814;DHT22;8524;57.650;11.926;2023-05-20T14:16:01;22.70;91.80
16814;DHT22;8524;57.650;11.926;2023-05-20T14:18:28;22.90;85.90
16814;DHT22;8524;57.650;11.926;2023-05-20T14:20:55;22.80;83.00
16814;DHT22;8524;57.650;11.926;2023-05-20T14:23:22;22.90;90.60
16814;DHT22;8524;57.650;11.926;2023-05-20T14:25:49;23.00;87.10
16814;DHT22;8524;57.650;11.926;2023-05-20T14:28:16;22.70;82.80
16814;DHT22;8524;57.650;11.926;2023-05-20T14:30:45;22.70;87.40
16814;DHT22;8524;57.650;11.926;2023-05-20T14:33:12;22.80;90.20
16814;DHT22;8524;57.650;11.926;2023-05-20T14:35:39;23.40;85.70
16814;DHT22;8524;57.650;11.926;2023-05-20T14:38:06;22.90;88.80
16814;DHT22;8524;57.650;11.926;2023-05-20T14:40:34;22.80;91.40
16814;DHT22;8524;57.650;11.926;2023-05-20T14:43:01;23.00;89.60
16814;DHT22;8524;57.650;11.926;2023-05-20T14:45:28;22.90;87.00
16814;DHT22;8524;57.650;11.926;2023-05-20T14:47:57;22.70;87.90
16814;DHT22;8524;57.650;11.926;2023-05-20T14:50:24;22.90;86.30
16814;DHT22;8524;57.650;11.926;2023-05-20T14:52:51;22.70;84.20
16814;DHT22;8524;57.650;11.926;2023-05-20T14:55:19;22.40;90.40
16814;DHT22;8524;57.650;11.926;2023-05-20T14:57:50;22.30;90.90
16814;DHT22;8524;57.650;11.926;2023-05-20T15:00:17;22.60;92.20
16814;DHT22;8524;57.650;11.926;2023-05-20T15:02:44;23.10;90.60
16814;DHT22;8524;57.650;11.926;2023-05-20T15:05:12;23.00;85.50
16814;DHT22;8524;57.650;11.926;2023-05-20T15:07:39;22.60;86.40
16814;DHT22;8524;57.650;11.926;2023-05-20T15:10:07;22.70;91.00
16814;DHT22;8524;57.650;11.926;2023-05-20T15:12:34;22.70;91.70
16814;DHT22;8524;57.650;11.926;2023-05-20T15:15:01;22.70;90.30
16814;DHT22;8524;57.650;11.926;2023-05-20T15:17:28;22.50;90.70
16814;DHT22;8524;57.650;11.926;2023-05-20T15:19:55;22.70;90.50
16814;DHT22;8524;57.650;11.926;2023-05-20T15:22:23;22.40;91.70
16814;DHT22;8524;57.650;11.926;2023-05-20T15:24:50;22.20;93.30
16814;DHT22;8524;57.650;11.926;2023-05-20T15:27:17;22.20;93.60
16814;DHT22;8524;57.650;11.926;2023-05-20T15:29:44;22.40;92.50
16814;DHT22;8524;57.650;11.926;2023-05-20T15:32:13;22.00;94.20
16814;DHT22;8524;57.650;11.926;2023-05-20T15:34:40;22.00;96.30
16814;DHT22;8524;57.650;11.926;2023-05-20T15:37:07;22.20;95.40
16814;DHT22;8524;57.650;11.926;2023-05-20T15:39:37;22.00;95.50
16814;DHT22;8524;57.650;11.926;2023-05-20T15:42:04;22.10;94.80